SUMU/MVD METAR and TAF weather

Enter ICAO airport designator
Station Type Date Time Source
SUMU METAR 2019/10/21 22:00 UTC NOAA

SUMU 212200Z 00000KT 9999 FEW015 SCT070 14/10 Q1016 NOSIG


Station Type Date Time Source
SUMU Decoded METAR 2019/10/21 22:00 UTC NOAA

Carrasco, Uruguay (SUMU) 34-50S 056-00W 32M
Oct 21, 2019 - 06:00 PM EDT / 2019.10.21 2200 UTC
Wind: Calm:0
Visibility: greater than 7 mile(s):0
Sky conditions: partly cloudy
Temperature: 57 F (14 C)
Dew Point: 50 F (10 C)
Relative Humidity: 76%
Pressure (altimeter): 30.00 in. Hg (1016 hPa)
ob: SUMU 212200Z 00000KT 9999 FEW015 SCT070 14/10 Q1016 NOSIG
cycle: 22

Station Type Date Time Source
SUMU TAF 2019/10/21 21:54 UTC NOAA

TAF
AMD SUMU 212100Z 2121/2218 13005KT 9999 SCT015 BKN070 TX18/2218Z TN10/2210Z PROB40
TEMPO 2100/2210 VRB03KT 0500 FG BKN003
BECMG 2210/2212 34008KT 9999 SCT026

Example: see airport list